createdAt,value
2022-11-17T00:02:20.687Z,12.55
2022-11-17T00:04:47.346Z,11.38
2022-11-17T00:07:15.440Z,12.18
2022-11-17T00:09:42.162Z,15.35
2022-11-17T00:12:08.735Z,12.38
2022-11-17T00:14:36.673Z,13.13
2022-11-17T00:17:05.049Z,13.63
2022-11-17T00:19:31.676Z,12.85
2022-11-17T00:21:58.296Z,13.40
2022-11-17T00:24:26.249Z,12.75
2022-11-17T00:26:52.965Z,13.00
2022-11-17T00:29:19.540Z,18.65
2022-11-17T00:31:46.241Z,13.20
2022-11-17T00:34:15.353Z,12.20
2022-11-17T00:36:43.985Z,12.00
2022-11-17T00:39:11.934Z,13.73
2022-11-17T00:41:40.104Z,14.45
2022-11-17T00:44:07.105Z,13.05
2022-11-17T00:46:34.573Z,13.63
2022-11-17T00:49:01.375Z,15.32
2022-11-17T00:51:28.247Z,12.75
2022-11-17T00:53:54.908Z,15.52
2022-11-17T00:56:21.711Z,15.73
2022-11-17T00:58:49.768Z,15.82
2022-11-17T01:01:16.447Z,14.25
2022-11-17T01:03:43.329Z,12.73
2022-11-17T01:06:12.155Z,14.20
2022-11-17T01:08:39.049Z,18.38
2022-11-17T01:11:11.020Z,13.95
2022-11-17T01:13:38.317Z,13.02
2022-11-17T01:16:08.819Z,19.60
2022-11-17T01:18:35.920Z,15.82
2022-11-17T01:21:08.945Z,14.07
2022-11-17T01:23:36.718Z,15.63
2022-11-17T01:26:08.614Z,16.50
2022-11-17T01:28:35.349Z,15.60
2022-11-17T01:31:04.307Z,14.88
2022-11-17T01:33:32.688Z,15.75
2022-11-17T01:36:03.853Z,14.68
2022-11-17T01:38:31.134Z,13.70
2022-11-17T01:40:59.078Z,14.13
2022-11-17T01:43:37.521Z,15.98
2022-11-17T01:46:04.780Z,13.55
2022-11-17T01:48:33.678Z,13.65
2022-11-17T01:51:00.855Z,16.27
2022-11-17T01:53:27.649Z,17.05
2022-11-17T01:55:57.020Z,13.45
2022-11-17T01:58:28.844Z,13.85
2022-11-17T02:00:55.660Z,13.98
2022-11-17T02:03:24.153Z,14.77
2022-11-17T02:05:57.560Z,13.95
2022-11-17T02:10:53.358Z,14.40
2022-11-17T02:13:21.694Z,12.48
2022-11-17T02:15:48.625Z,18.10
2022-11-17T02:18:16.384Z,14.27
2022-11-17T02:21:15.157Z,13.38
2022-11-17T02:24:08.861Z,15.73
2022-11-17T02:27:06.466Z,14.52
2022-11-17T02:29:43.342Z,15.63
2022-11-17T02:32:15.723Z,13.95
2022-11-17T02:34:47.619Z,13.63
2022-11-17T02:37:20.812Z,14.25
2022-11-17T02:39:53.852Z,16.73
2022-11-17T02:42:27.577Z,14.25
2022-11-17T02:44:58.506Z,14.05
2022-11-17T02:47:29.555Z,13.93
2022-11-17T02:50:01.385Z,14.20
2022-11-17T02:52:29.942Z,16.17
2022-11-17T02:54:59.305Z,14.10
2022-11-17T02:57:30.354Z,14.27
2022-11-17T03:00:00.887Z,14.65
2022-11-17T03:02:57.785Z,15.73
2022-11-17T03:05:32.045Z,15.65
2022-11-17T03:08:11.337Z,16.23
2022-11-17T03:10:48.210Z,14.48
2022-11-17T03:13:20.802Z,15.95
2022-11-17T03:15:53.093Z,17.43
2022-11-17T03:18:24.741Z,20.25
2022-11-17T03:21:02.052Z,15.73
2022-11-17T03:23:33.758Z,16.88
2022-11-17T03:26:05.200Z,15.48
2022-11-17T03:28:33.418Z,19.02
2022-11-17T03:31:04.590Z,18.33
2022-11-17T03:33:32.106Z,17.63
2022-11-17T03:36:03.936Z,16.55
2022-11-17T03:38:37.218Z,16.10
2022-11-17T03:41:09.029Z,17.58
2022-11-17T03:43:37.791Z,15.98
2022-11-17T03:46:09.673Z,21.10
2022-11-17T03:48:42.565Z,19.80
2022-11-17T03:51:12.902Z,16.38
2022-11-17T03:53:40.160Z,17.13
2022-11-17T03:56:18.701Z,16.67
2022-11-17T03:58:51.826Z,20.05
2022-11-17T04:01:21.222Z,15.93
2022-11-17T04:03:48.360Z,17.65
2022-11-17T04:06:14.901Z,14.75
2022-11-17T04:08:41.697Z,18.65
2022-11-17T04:11:08.248Z,15.38
2022-11-17T04:13:35.048Z,17.65
2022-11-17T04:16:01.954Z,17.02
2022-11-17T04:18:30.003Z,20.33
2022-11-17T04:20:57.164Z,15.48
2022-11-17T04:23:24.616Z,18.55
2022-11-17T04:25:53.576Z,17.20
2022-11-17T04:28:20.967Z,16.52
2022-11-17T04:30:47.538Z,17.73
2022-11-17T04:33:14.130Z,19.90
2022-11-17T04:35:42.078Z,16.33
2022-11-17T04:38:08.709Z,17.83
2022-11-17T04:40:35.340Z,21.85
2022-11-17T04:43:01.873Z,17.65
2022-11-17T04:45:28.509Z,20.00
2022-11-17T04:47:55.175Z,18.77
2022-11-17T04:50:21.791Z,19.55
2022-11-17T04:52:49.737Z,22.05
2022-11-17T04:55:16.318Z,20.85
2022-11-17T04:57:42.885Z,18.98
2022-11-17T05:00:10.585Z,18.45
2022-11-17T05:02:37.167Z,15.82
2022-11-17T05:05:04.245Z,18.33
2022-11-17T05:07:30.926Z,19.58
2022-11-17T05:09:58.860Z,24.00
2022-11-17T05:12:25.668Z,19.13
2022-11-17T05:14:52.239Z,19.42
2022-11-17T05:17:18.829Z,19.13
2022-11-17T05:19:47.292Z,19.08
2022-11-17T05:22:15.619Z,19.60
2022-11-17T05:24:42.177Z,19.10
2022-11-17T05:27:10.158Z,20.50
2022-11-17T05:29:36.729Z,19.45
2022-11-17T05:32:03.416Z,16.90
2022-11-17T05:34:30.076Z,21.90
2022-11-17T05:36:56.656Z,20.08
2022-11-17T05:39:23.247Z,21.63
2022-11-17T05:41:49.886Z,21.75
2022-11-17T05:44:17.843Z,18.98
2022-11-17T05:46:44.410Z,23.17
2022-11-17T05:49:11.163Z,18.92
2022-11-17T05:51:37.774Z,20.65
2022-11-17T05:54:04.468Z,20.25
2022-11-17T05:56:38.549Z,25.35
2022-11-17T05:59:19.370Z,19.90
2022-11-17T06:01:55.247Z,19.83
2022-11-17T06:04:21.909Z,23.17
2022-11-17T06:06:49.476Z,18.75
2022-11-17T06:09:16.570Z,20.80
2022-11-17T06:11:43.136Z,21.00
2022-11-17T06:14:09.733Z,20.27
2022-11-17T06:16:40.708Z,20.10
2022-11-17T06:19:13.234Z,18.40
2022-11-17T06:22:10.137Z,20.90
2022-11-17T06:24:27.138Z,20.25
2022-11-17T06:26:53.884Z,17.58
2022-11-17T06:29:20.570Z,19.33
2022-11-17T06:31:47.354Z,17.85
2022-11-17T06:34:15.602Z,22.60
2022-11-17T06:36:42.162Z,19.15
2022-11-17T06:39:08.795Z,18.27
2022-11-17T06:41:36.365Z,19.45
2022-11-17T06:44:03.021Z,18.25
2022-11-17T06:46:30.283Z,17.95
2022-11-17T06:48:56.835Z,19.52
2022-11-17T06:51:24.857Z,20.15
2022-11-17T06:53:51.487Z,17.85
2022-11-17T06:56:18.132Z,18.10
2022-11-17T06:58:44.780Z,18.10
2022-11-17T07:01:13.173Z,19.55
2022-11-17T07:03:41.141Z,16.13
2022-11-17T07:06:09.837Z,17.88
2022-11-17T07:08:38.870Z,18.10
2022-11-17T07:11:07.225Z,17.73
2022-11-17T07:13:34.573Z,22.08
2022-11-17T07:16:05.443Z,17.08
2022-11-17T07:18:33.065Z,13.25
2022-11-17T07:21:05.003Z,17.25
2022-11-17T07:23:32.548Z,17.00
2022-11-17T07:26:01.293Z,18.45
2022-11-17T07:28:28.254Z,15.45
2022-11-17T07:30:55.533Z,15.25
2022-11-17T07:33:22.406Z,16.02
2022-11-17T07:35:49.192Z,17.30
2022-11-17T07:38:15.810Z,15.48
2022-11-17T07:40:42.513Z,23.05
2022-11-17T07:43:10.538Z,16.35
2022-11-17T07:45:37.196Z,15.45
2022-11-17T07:48:05.361Z,19.77
2022-11-17T07:50:32.337Z,17.85
2022-11-17T07:52:59.060Z,17.75
2022-11-17T07:55:26.336Z,13.88
2022-11-17T07:57:57.165Z,16.08
2022-11-17T08:00:25.783Z,14.30
2022-11-17T08:02:52.609Z,12.88
2022-11-17T08:05:19.686Z,16.42
2022-11-17T08:07:53.666Z,17.83
2022-11-17T08:10:20.326Z,14.45
2022-11-17T08:12:46.968Z,14.90
2022-11-17T08:15:13.815Z,13.90
2022-11-17T08:17:41.832Z,19.45
2022-11-17T08:20:09.612Z,15.25
2022-11-17T08:22:36.327Z,13.18
2022-11-17T08:25:03.034Z,15.48
2022-11-17T08:27:29.848Z,17.27
2022-11-17T08:29:56.475Z,16.10
2022-11-17T08:32:23.131Z,31.60
2022-11-17T08:34:51.267Z,13.35
2022-11-17T08:37:17.985Z,14.35
2022-11-17T08:39:44.614Z,14.27
2022-11-17T08:42:11.424Z,15.43
2022-11-17T08:44:38.157Z,15.35
2022-11-17T08:47:04.886Z,14.15
2022-11-17T08:49:31.571Z,16.75
2022-11-17T08:51:59.633Z,18.98
2022-11-17T08:54:26.298Z,16.02
2022-11-17T08:56:57.054Z,18.30
2022-11-17T08:59:23.906Z,24.15
2022-11-17T09:01:50.497Z,15.30
2022-11-17T09:04:17.860Z,16.00
2022-11-17T09:06:44.556Z,29.05
2022-11-17T09:09:12.799Z,20.65
2022-11-17T09:11:39.428Z,22.88
2022-11-17T09:14:07.245Z,25.63
2022-11-17T09:16:34.495Z,17.73
2022-11-17T09:19:01.077Z,16.65
2022-11-17T09:21:27.710Z,17.80
2022-11-17T09:23:54.639Z,19.73
2022-11-17T09:26:22.720Z,20.45
2022-11-17T09:28:49.304Z,17.00
2022-11-17T09:31:17.649Z,17.02
2022-11-17T09:33:44.531Z,21.42
2022-11-17T09:36:12.498Z,16.23
2022-11-17T09:38:40.187Z,24.58
2022-11-17T09:41:24.182Z,18.10
2022-11-17T09:46:28.279Z,21.65
2022-11-17T09:49:02.867Z,18.63
2022-11-17T09:51:31.491Z,15.48
2022-11-17T09:54:05.085Z,18.67
2022-11-17T09:56:33.973Z,18.65
2022-11-17T09:59:04.811Z,20.02
2022-11-17T10:01:34.009Z,21.02
2022-11-17T10:04:00.720Z,19.98
2022-11-17T10:06:30.627Z,21.63
2022-11-17T10:09:01.428Z,18.35
2022-11-17T10:11:29.948Z,20.95
2022-11-17T10:13:58.809Z,19.30
2022-11-17T10:16:25.449Z,20.85
2022-11-17T10:18:52.084Z,20.63
2022-11-17T10:21:18.693Z,20.40
2022-11-17T10:23:54.878Z,22.52
2022-11-17T10:26:21.555Z,23.20
2022-11-17T10:28:48.411Z,26.85
2022-11-17T10:31:18.737Z,23.33
2022-11-17T10:33:47.501Z,23.95
2022-11-17T10:36:19.511Z,21.05
2022-11-17T10:38:48.254Z,21.20
2022-11-17T10:41:17.804Z,21.17
2022-11-17T10:43:55.789Z,22.58
2022-11-17T10:46:24.174Z,21.33
2022-11-17T10:48:56.854Z,23.08
2022-11-17T10:51:25.338Z,20.13
2022-11-17T10:54:05.140Z,23.23
2022-11-17T10:56:38.561Z,21.83
2022-11-17T11:01:42.671Z,19.98
2022-11-17T11:04:28.349Z,20.50
2022-11-17T11:07:06.680Z,26.10
2022-11-17T11:09:34.779Z,19.73
2022-11-17T11:12:04.820Z,21.42
2022-11-17T11:14:37.817Z,20.60
2022-11-17T11:17:11.488Z,19.52
2022-11-17T11:19:38.268Z,17.98
2022-11-17T11:22:25.104Z,19.20
2022-11-17T11:24:58.275Z,18.60
2022-11-17T11:27:48.718Z,20.88
2022-11-17T11:30:17.614Z,22.00
2022-11-17T11:32:55.612Z,20.73
2022-11-17T11:35:36.588Z,19.45
2022-11-17T11:38:15.554Z,21.02
2022-11-17T11:40:46.645Z,20.27
2022-11-17T11:43:25.790Z,21.05
2022-11-17T11:46:05.870Z,21.38
2022-11-17T11:48:37.269Z,24.40
2022-11-17T11:51:11.094Z,22.02
2022-11-17T11:53:46.531Z,20.05
2022-11-17T11:56:17.514Z,19.42
2022-11-17T11:58:49.200Z,18.80
2022-11-17T12:01:18.339Z,17.48
2022-11-17T12:03:52.734Z,20.20
2022-11-17T12:06:28.948Z,17.10
2022-11-17T12:09:06.524Z,16.30
2022-11-17T12:11:34.412Z,19.92
2022-11-17T12:14:04.782Z,18.50
2022-11-17T12:16:34.323Z,17.20
2022-11-17T12:19:02.701Z,22.88
2022-11-17T12:21:30.395Z,17.63
2022-11-17T12:24:15.902Z,18.63
2022-11-17T12:26:42.821Z,16.58
2022-11-17T12:29:45.792Z,15.98
2022-11-17T12:32:51.606Z,16.48
2022-11-17T12:35:27.034Z,15.15
2022-11-17T12:38:30.949Z,17.30
2022-11-17T12:40:57.564Z,15.75
2022-11-17T12:43:26.049Z,14.23
2022-11-17T12:46:04.118Z,15.27
2022-11-17T12:48:35.019Z,17.63
2022-11-17T12:51:10.337Z,19.92
2022-11-17T12:53:48.533Z,17.67
2022-11-17T12:56:36.465Z,16.33
2022-11-17T12:59:34.937Z,14.88
2022-11-17T13:02:17.991Z,16.13
2022-11-17T13:04:49.870Z,15.88
2022-11-17T13:07:20.333Z,15.77
2022-11-17T13:09:51.307Z,17.00
2022-11-17T13:12:21.948Z,22.00
2022-11-17T13:14:53.525Z,15.75
2022-11-17T13:17:25.396Z,20.55
2022-11-17T13:19:58.928Z,16.15
2022-11-17T13:22:27.213Z,16.63
2022-11-17T13:28:30.377Z,17.13
2022-11-17T13:30:57.337Z,18.38
2022-11-17T13:33:25.063Z,16.05
2022-11-17T13:36:09.364Z,17.63
2022-11-17T13:38:37.519Z,14.52
2022-11-17T13:41:05.807Z,20.00
2022-11-17T13:43:39.365Z,14.20
2022-11-17T13:46:06.335Z,14.55
2022-11-17T13:48:35.443Z,17.88
2022-11-17T13:51:17.305Z,20.95
2022-11-17T13:53:47.370Z,15.73
2022-11-17T13:56:36.871Z,17.55
2022-11-17T13:59:06.494Z,17.98
2022-11-17T14:01:33.412Z,15.65
2022-11-17T14:04:21.919Z,16.10
2022-11-17T14:06:57.523Z,14.13
2022-11-17T14:09:27.004Z,13.30
2022-11-17T14:11:53.914Z,15.45
2022-11-17T14:14:26.645Z,14.07
2022-11-17T14:16:53.725Z,15.65
2022-11-17T14:19:32.281Z,15.82
2022-11-17T14:22:01.544Z,19.15
2022-11-17T14:24:30.369Z,14.23
2022-11-17T14:26:57.289Z,18.55
2022-11-17T14:29:24.330Z,15.10
2022-11-17T14:31:51.131Z,15.77
2022-11-17T14:34:18.214Z,15.50
2022-11-17T14:36:46.563Z,14.63
2022-11-17T14:39:15.306Z,19.33
2022-11-17T14:41:44.493Z,19.45
2022-11-17T14:44:11.421Z,20.88
2022-11-17T14:46:38.273Z,17.83
2022-11-17T14:49:05.305Z,18.55
2022-11-17T14:51:32.404Z,16.60
2022-11-17T14:53:59.227Z,16.48
2022-11-17T14:56:25.969Z,17.42
2022-11-17T14:58:56.461Z,17.50
2022-11-17T15:01:25.613Z,17.83
2022-11-17T15:03:53.102Z,20.75
2022-11-17T15:06:20.576Z,17.35
2022-11-17T15:08:48.032Z,16.60
2022-11-17T15:11:17.067Z,16.80
2022-11-17T15:13:44.119Z,23.90
2022-11-17T15:16:12.277Z,16.75
2022-11-17T15:18:39.006Z,16.85
2022-11-17T15:21:07.295Z,17.30
2022-11-17T15:23:37.143Z,18.02
2022-11-17T15:26:04.724Z,20.45
2022-11-17T15:28:31.482Z,15.35
2022-11-17T15:30:58.288Z,20.33
2022-11-17T15:33:26.464Z,16.45
2022-11-17T15:36:01.001Z,19.13
2022-11-17T15:38:27.838Z,18.25
2022-11-17T15:40:54.704Z,18.27
2022-11-17T15:43:21.659Z,17.58
2022-11-17T15:45:48.427Z,21.58
2022-11-17T15:48:18.763Z,22.60
2022-11-17T15:50:47.164Z,22.85
2022-11-17T15:53:13.948Z,20.80
2022-11-17T15:55:40.657Z,21.70
2022-11-17T15:58:07.464Z,23.00
2022-11-17T16:00:34.313Z,25.92
2022-11-17T16:03:01.241Z,21.73
2022-11-17T16:05:28.116Z,21.80
2022-11-17T16:07:56.167Z,23.75
2022-11-17T16:10:23.031Z,22.85
2022-11-17T16:12:49.771Z,26.50
2022-11-17T16:15:16.811Z,25.42
2022-11-17T16:17:43.531Z,20.95
2022-11-17T16:20:11.505Z,26.58
2022-11-17T16:22:38.382Z,26.02
2022-11-17T16:25:07.655Z,22.90
2022-11-17T16:27:34.323Z,23.50
2022-11-17T16:30:01.020Z,24.67
2022-11-17T16:32:27.751Z,24.42
2022-11-17T16:34:54.600Z,25.30
2022-11-17T16:37:21.361Z,23.67
2022-11-17T16:39:48.003Z,24.95
2022-11-17T16:42:16.185Z,25.25
2022-11-17T16:44:42.958Z,27.67
2022-11-17T16:47:09.685Z,27.02
2022-11-17T16:49:36.848Z,26.33
2022-11-17T16:52:03.636Z,25.33
2022-11-17T16:54:30.434Z,29.20
2022-11-17T16:56:57.097Z,28.50
2022-11-17T16:59:25.212Z,30.55
2022-11-17T17:01:52.024Z,21.85
2022-11-17T17:04:19.573Z,23.48
2022-11-17T17:06:46.254Z,23.50
2022-11-17T17:09:14.902Z,26.45
2022-11-17T17:11:41.982Z,28.52
2022-11-17T17:14:13.033Z,25.25
2022-11-17T17:16:42.460Z,26.38
2022-11-17T17:19:11.740Z,24.55
2022-11-17T17:21:39.668Z,27.55
2022-11-17T17:24:07.727Z,24.52
2022-11-17T17:26:35.972Z,23.30
2022-11-17T17:29:04.673Z,25.63
2022-11-17T17:31:33.371Z,23.75
2022-11-17T17:34:01.696Z,26.80
2022-11-17T17:36:28.747Z,21.33
2022-11-17T17:38:57.513Z,26.38
2022-11-17T17:41:26.446Z,26.75
2022-11-17T17:43:57.812Z,23.40
2022-11-17T17:46:25.134Z,23.92
2022-11-17T17:48:51.853Z,25.40
2022-11-17T17:51:21.473Z,27.23
2022-11-17T17:53:48.104Z,27.45
2022-11-17T17:56:14.940Z,27.55
2022-11-17T17:58:41.663Z,24.42
2022-11-17T18:01:10.334Z,25.13
2022-11-17T18:03:37.104Z,24.33
2022-11-17T18:06:04.384Z,26.48
2022-11-17T18:08:35.394Z,24.58
2022-11-17T18:11:03.690Z,27.13
2022-11-17T18:13:30.965Z,27.00
2022-11-17T18:15:57.985Z,25.60
2022-11-17T18:18:24.806Z,27.80
2022-11-17T18:20:58.826Z,25.25
2022-11-17T18:23:28.056Z,30.17
2022-11-17T18:25:56.630Z,29.92
2022-11-17T18:28:23.624Z,27.90
2022-11-17T18:30:50.512Z,28.88
2022-11-17T18:33:17.175Z,29.67
2022-11-17T18:35:43.944Z,26.90
2022-11-17T18:38:10.639Z,28.33
2022-11-17T18:40:37.294Z,28.58
2022-11-17T18:43:05.270Z,31.13
2022-11-17T18:45:35.764Z,30.70
2022-11-17T18:48:02.401Z,30.58
2022-11-17T18:50:29.128Z,27.77
2022-11-17T18:52:56.520Z,30.02
2022-11-17T18:55:23.541Z,30.20
2022-11-17T18:57:50.296Z,27.75
2022-11-17T19:00:19.105Z,28.83
2022-11-17T19:02:45.810Z,31.25
2022-11-17T19:05:12.514Z,26.75
2022-11-17T19:07:39.328Z,30.88
2022-11-17T19:10:06.834Z,28.90
2022-11-17T19:12:33.545Z,28.02
2022-11-17T19:15:00.191Z,33.88
2022-11-17T19:17:28.297Z,29.65
2022-11-17T19:19:54.990Z,31.58
2022-11-17T19:22:21.722Z,27.08
2022-11-17T19:24:48.346Z,29.40
2022-11-17T19:27:15.050Z,26.98
2022-11-17T19:29:41.713Z,31.27
2022-11-17T19:32:08.494Z,29.08
2022-11-17T19:34:36.519Z,32.72
2022-11-17T19:37:03.311Z,29.80
2022-11-17T19:39:30.199Z,32.92
2022-11-17T19:41:56.958Z,30.77
2022-11-17T19:44:23.602Z,31.08
2022-11-17T19:46:50.321Z,30.52
2022-11-17T19:49:17.292Z,30.98
2022-11-17T19:51:45.527Z,29.10
2022-11-17T19:54:12.903Z,28.77
2022-11-17T19:56:39.659Z,31.17
2022-11-17T19:59:08.671Z,30.15
2022-11-17T20:01:39.241Z,34.00
2022-11-17T20:04:05.922Z,31.10
2022-11-17T20:06:35.829Z,30.98
2022-11-17T20:09:06.609Z,32.78
2022-11-17T20:11:33.254Z,34.47
2022-11-17T20:13:59.978Z,28.90
2022-11-17T20:16:27.433Z,31.77
2022-11-17T20:18:56.004Z,31.25
2022-11-17T20:21:23.359Z,34.47
2022-11-17T20:23:50.335Z,34.55
2022-11-17T20:26:21.009Z,34.35
2022-11-17T20:28:48.018Z,38.30
2022-11-17T20:31:16.168Z,32.75
2022-11-17T20:33:43.873Z,32.38
2022-11-17T20:36:13.061Z,35.03
2022-11-17T20:38:39.948Z,36.33
2022-11-17T20:41:06.924Z,36.17
2022-11-17T20:43:35.880Z,35.05
2022-11-17T20:46:03.813Z,33.05
2022-11-17T20:48:30.994Z,32.35
2022-11-17T20:50:58.173Z,33.30
2022-11-17T20:53:25.293Z,35.28
2022-11-17T20:55:52.224Z,36.53
2022-11-17T20:58:19.234Z,34.08
2022-11-17T21:00:47.441Z,35.75
2022-11-17T21:03:14.363Z,34.00
2022-11-17T21:05:41.011Z,33.13
2022-11-17T21:08:07.610Z,36.15
2022-11-17T21:10:34.406Z,34.35
2022-11-17T21:13:01.009Z,31.40
2022-11-17T21:15:27.577Z,37.60
2022-11-17T21:17:55.524Z,35.78
2022-11-17T21:20:22.113Z,33.05
2022-11-17T21:22:48.732Z,32.65
2022-11-17T21:25:15.431Z,32.70
2022-11-17T21:27:41.993Z,35.20
2022-11-17T21:30:10.204Z,36.10
2022-11-17T21:32:36.775Z,32.80
2022-11-17T21:35:05.418Z,33.20
2022-11-17T21:37:31.978Z,38.67
2022-11-17T21:39:58.914Z,31.75
2022-11-17T21:42:25.563Z,33.08
2022-11-17T21:44:52.163Z,29.90
2022-11-17T21:47:18.796Z,32.58
2022-11-17T21:49:45.600Z,31.42
2022-11-17T21:52:13.528Z,34.20
2022-11-17T21:54:40.209Z,30.92
2022-11-17T21:57:06.831Z,32.20
2022-11-17T21:59:33.445Z,35.20
2022-11-17T22:02:00.027Z,32.05
2022-11-17T22:04:26.636Z,30.42
2022-11-17T22:06:53.246Z,31.90
2022-11-17T22:09:21.230Z,32.45
2022-11-17T22:11:47.825Z,34.47
2022-11-17T22:14:16.537Z,36.17
2022-11-17T22:16:44.503Z,31.40
2022-11-17T22:19:12.439Z,34.80
2022-11-17T22:21:39.872Z,33.30
2022-11-17T22:24:08.286Z,32.60
2022-11-17T22:26:36.955Z,34.92
2022-11-17T22:29:05.344Z,33.65
2022-11-17T22:31:32.295Z,31.73
2022-11-17T22:33:59.276Z,31.40
2022-11-17T22:36:25.837Z,34.47
2022-11-17T22:38:52.492Z,30.90
2022-11-17T22:41:20.355Z,32.95
2022-11-17T22:43:49.972Z,32.03
2022-11-17T22:46:16.858Z,29.40
2022-11-17T22:48:43.422Z,34.80
2022-11-17T22:51:10.226Z,32.75
2022-11-17T22:53:36.835Z,31.40
2022-11-17T22:56:05.978Z,33.63
2022-11-17T22:58:33.597Z,29.15
2022-11-17T23:01:05.371Z,29.88
2022-11-17T23:03:32.263Z,34.75
2022-11-17T23:06:01.377Z,31.63
2022-11-17T23:08:27.933Z,28.85
2022-11-17T23:11:21.794Z,29.75
2022-11-17T23:13:46.308Z,28.33
2022-11-17T23:16:14.290Z,30.83
2022-11-17T23:18:40.913Z,34.85
2022-11-17T23:21:09.684Z,33.22
2022-11-17T23:23:39.316Z,36.20
2022-11-17T23:26:09.156Z,34.33
2022-11-17T23:28:35.882Z,32.53
2022-11-17T23:31:04.346Z,32.83
2022-11-17T23:33:34.366Z,35.67
2022-11-17T23:36:01.040Z,35.90
2022-11-17T23:38:29.852Z,34.47
2022-11-17T23:40:59.311Z,30.65
2022-11-17T23:43:25.889Z,31.60
2022-11-17T23:45:52.462Z,36.28
2022-11-17T23:48:19.160Z,35.47
2022-11-17T23:50:47.220Z,37.22
2022-11-17T23:53:14.021Z,34.30
2022-11-17T23:55:40.675Z,37.50
2022-11-17T23:58:07.255Z,37.10
